Terminal Aerodrome Forecast
Issued by NWS

Current Version | Previous Version | Graphics & Text | Print | Product List | Glossary On
Versions: 1 2 3 4 5 6 7 8 9 10 11 12 13 14 15 16 17 18 19 20 21 22 23 24 25 26 27 28 29 30 31 32 33 34
000
FTUS41 KRNK 281721
TAFLWB
TAF
KLWB 281721Z 2818/2918 00000KT P6SM VCTS SCT020 BKN050CB
     FM290200 00000KT 4SM BR SCT035 BKN090
     FM290700 00000KT 3SM BR SCT001 BKN070
     FM290900 00000KT 1/4SM FG VV001
     FM291400 VRB03KT 2SM BR VV007
     FM291600 25003KT P6SM SCT015 BKN025=

USA.gov is the U.S. government's official web portal to all federal, state and local government web resources and services.